sensor_id;sensor_type;location;lat;lon;timestamp;temperature;humidity
43346;DHT22;28937;51.160;4.146;2022-12-07T00:01:24;11.50;93.70
43346;DHT22;28937;51.160;4.146;2022-12-07T00:03:52;11.50;93.60
43346;DHT22;28937;51.160;4.146;2022-12-07T00:06:19;11.50;93.80
43346;DHT22;28937;51.160;4.146;2022-12-07T00:08:46;11.40;93.70
43346;DHT22;28937;51.160;4.146;2022-12-07T00:11:14;11.40;93.60
43346;DHT22;28937;51.160;4.146;2022-12-07T00:13:40;11.40;93.60
43346;DHT22;28937;51.160;4.146;2022-12-07T00:16:14;11.40;93.60
43346;DHT22;28937;51.160;4.146;2022-12-07T00:18:42;11.40;93.60
43346;DHT22;28937;51.160;4.146;2022-12-07T00:21:11;11.40;93.60
43346;DHT22;28937;51.160;4.146;2022-12-07T00:23:37;11.30;93.70
43346;DHT22;28937;51.160;4.146;2022-12-07T00:26:08;11.20;93.80
43346;DHT22;28937;51.160;4.146;2022-12-07T00:28:33;11.20;93.80
43346;DHT22;28937;51.160;4.146;2022-12-07T00:31:04;11.20;93.80
43346;DHT22;28937;51.160;4.146;2022-12-07T00:33:30;11.20;93.80
43346;DHT22;28937;51.160;4.146;2022-12-07T00:35:57;11.20;93.70
43346;DHT22;28937;51.160;4.146;2022-12-07T00:38:23;11.20;93.70
43346;DHT22;28937;51.160;4.146;2022-12-07T00:41:01;11.10;93.80
43346;DHT22;28937;51.160;4.146;2022-12-07T00:43:27;11.10;94.00
43346;DHT22;28937;51.160;4.146;2022-12-07T00:45:53;11.10;94.00
43346;DHT22;28937;51.160;4.146;2022-12-07T00:48:20;11.10;94.10
43346;DHT22;28937;51.160;4.146;2022-12-07T00:50:45;11.20;94.10
43346;DHT22;28937;51.160;4.146;2022-12-07T00:53:11;11.10;94.20
43346;DHT22;28937;51.160;4.146;2022-12-07T00:55:37;11.20;94.30
43346;DHT22;28937;51.160;4.146;2022-12-07T00:58:03;11.20;94.50
43346;DHT22;28937;51.160;4.146;2022-12-07T01:00:29;11.20;94.60
43346;DHT22;28937;51.160;4.146;2022-12-07T01:02:55;11.20;94.60
43346;DHT22;28937;51.160;4.146;2022-12-07T01:05:20;11.30;94.60
43346;DHT22;28937;51.160;4.146;2022-12-07T01:07:46;11.20;94.60
43346;DHT22;28937;51.160;4.146;2022-12-07T01:10:12;11.20;94.60
43346;DHT22;28937;51.160;4.146;2022-12-07T01:12:38;11.20;94.70
43346;DHT22;28937;51.160;4.146;2022-12-07T01:15:04;11.30;94.60
43346;DHT22;28937;51.160;4.146;2022-12-07T01:17:30;11.20;94.60
43346;DHT22;28937;51.160;4.146;2022-12-07T01:19:56;11.30;94.70
43346;DHT22;28937;51.160;4.146;2022-12-07T01:22:21;11.20;94.50
43346;DHT22;28937;51.160;4.146;2022-12-07T01:24:47;11.30;94.60
43346;DHT22;28937;51.160;4.146;2022-12-07T01:27:13;11.30;94.60
43346;DHT22;28937;51.160;4.146;2022-12-07T01:29:38;11.30;94.70
43346;DHT22;28937;51.160;4.146;2022-12-07T01:32:04;11.20;94.70
43346;DHT22;28937;51.160;4.146;2022-12-07T01:34:30;11.20;95.00
43346;DHT22;28937;51.160;4.146;2022-12-07T01:36:55;11.30;94.80
43346;DHT22;28937;51.160;4.146;2022-12-07T01:39:21;11.30;94.90
43346;DHT22;28937;51.160;4.146;2022-12-07T01:41:50;11.30;95.10
43346;DHT22;28937;51.160;4.146;2022-12-07T01:46:54;11.20;95.00
43346;DHT22;28937;51.160;4.146;2022-12-07T01:49:26;11.20;95.00
43346;DHT22;28937;51.160;4.146;2022-12-07T01:52:02;11.20;94.80
43346;DHT22;28937;51.160;4.146;2022-12-07T01:54:29;11.20;94.70
43346;DHT22;28937;51.160;4.146;2022-12-07T01:56:56;11.10;94.80
43346;DHT22;28937;51.160;4.146;2022-12-07T01:59:24;11.10;94.50
43346;DHT22;28937;51.160;4.146;2022-12-07T02:01:52;11.10;94.50
43346;DHT22;28937;51.160;4.146;2022-12-07T02:04:19;11.10;94.70
43346;DHT22;28937;51.160;4.146;2022-12-07T02:06:46;11.00;94.70
43346;DHT22;28937;51.160;4.146;2022-12-07T02:09:12;11.00;94.80
43346;DHT22;28937;51.160;4.146;2022-12-07T02:11:38;11.10;94.80
43346;DHT22;28937;51.160;4.146;2022-12-07T02:14:04;11.10;94.80
43346;DHT22;28937;51.160;4.146;2022-12-07T02:17:02;11.10;94.80
43346;DHT22;28937;51.160;4.146;2022-12-07T02:19:44;11.00;94.70
43346;DHT22;28937;51.160;4.146;2022-12-07T02:25:23;11.00;94.80
43346;DHT22;28937;51.160;4.146;2022-12-07T02:28:17;11.00;94.80
43346;DHT22;28937;51.160;4.146;2022-12-07T02:30:47;11.00;95.00
43346;DHT22;28937;51.160;4.146;2022-12-07T02:33:27;11.00;94.90
43346;DHT22;28937;51.160;4.146;2022-12-07T02:36:00;11.00;95.20
43346;DHT22;28937;51.160;4.146;2022-12-07T02:38:47;11.00;95.00
43346;DHT22;28937;51.160;4.146;2022-12-07T02:44:19;11.00;94.80
43346;DHT22;28937;51.160;4.146;2022-12-07T02:47:07;11.00;94.90
43346;DHT22;28937;51.160;4.146;2022-12-07T02:49:33;11.00;95.00
43346;DHT22;28937;51.160;4.146;2022-12-07T02:52:00;10.90;95.00
43346;DHT22;28937;51.160;4.146;2022-12-07T02:54:26;11.00;95.10
43346;DHT22;28937;51.160;4.146;2022-12-07T02:57:34;11.00;95.10
43346;DHT22;28937;51.160;4.146;2022-12-07T03:00:15;10.90;95.20
43346;DHT22;28937;51.160;4.146;2022-12-07T03:03:00;10.90;95.20
43346;DHT22;28937;51.160;4.146;2022-12-07T03:05:39;11.00;95.10
43346;DHT22;28937;51.160;4.146;2022-12-07T03:11:13;11.00;95.10
43346;DHT22;28937;51.160;4.146;2022-12-07T03:13:47;10.90;95.10
43346;DHT22;28937;51.160;4.146;2022-12-07T03:16:16;10.90;95.10
43346;DHT22;28937;51.160;4.146;2022-12-07T03:18:53;11.00;95.00
43346;DHT22;28937;51.160;4.146;2022-12-07T03:21:27;10.90;95.00
43346;DHT22;28937;51.160;4.146;2022-12-07T03:23:58;10.90;95.00
43346;DHT22;28937;51.160;4.146;2022-12-07T03:26:47;10.90;95.00
43346;DHT22;28937;51.160;4.146;2022-12-07T03:29:22;10.90;95.00
43346;DHT22;28937;51.160;4.146;2022-12-07T03:31:55;10.90;95.00
43346;DHT22;28937;51.160;4.146;2022-12-07T03:34:31;10.90;95.00
43346;DHT22;28937;51.160;4.146;2022-12-07T03:37:06;10.80;94.90
43346;DHT22;28937;51.160;4.146;2022-12-07T03:39:38;10.80;95.00
43346;DHT22;28937;51.160;4.146;2022-12-07T03:42:07;10.80;95.20
43346;DHT22;28937;51.160;4.146;2022-12-07T03:44:34;10.80;95.20
43346;DHT22;28937;51.160;4.146;2022-12-07T03:52:32;10.80;95.30
43346;DHT22;28937;51.160;4.146;2022-12-07T03:55:16;10.90;95.20
43346;DHT22;28937;51.160;4.146;2022-12-07T03:57:43;10.90;95.30
43346;DHT22;28937;51.160;4.146;2022-12-07T04:00:10;10.80;95.40
43346;DHT22;28937;51.160;4.146;2022-12-07T04:02:37;10.80;95.20
43346;DHT22;28937;51.160;4.146;2022-12-07T04:05:03;10.90;95.10
43346;DHT22;28937;51.160;4.146;2022-12-07T04:07:28;10.80;95.00
43346;DHT22;28937;51.160;4.146;2022-12-07T04:09:54;10.80;95.10
43346;DHT22;28937;51.160;4.146;2022-12-07T04:12:21;10.80;95.00
43346;DHT22;28937;51.160;4.146;2022-12-07T04:14:46;10.70;95.00
43346;DHT22;28937;51.160;4.146;2022-12-07T04:17:12;10.80;95.00
43346;DHT22;28937;51.160;4.146;2022-12-07T04:19:38;10.70;94.90
43346;DHT22;28937;51.160;4.146;2022-12-07T04:22:04;10.70;94.80
43346;DHT22;28937;51.160;4.146;2022-12-07T04:24:30;10.70;94.80
43346;DHT22;28937;51.160;4.146;2022-12-07T04:26:56;10.60;94.80
43346;DHT22;28937;51.160;4.146;2022-12-07T04:29:22;10.60;94.80
43346;DHT22;28937;51.160;4.146;2022-12-07T04:31:48;10.60;94.90
43346;DHT22;28937;51.160;4.146;2022-12-07T04:34:14;10.60;94.80
43346;DHT22;28937;51.160;4.146;2022-12-07T04:36:40;10.60;94.70
43346;DHT22;28937;51.160;4.146;2022-12-07T04:41:45;10.50;94.70
43346;DHT22;28937;51.160;4.146;2022-12-07T04:44:12;10.50;94.70
43346;DHT22;28937;51.160;4.146;2022-12-07T04:46:39;10.50;94.90
43346;DHT22;28937;51.160;4.146;2022-12-07T04:49:05;10.50;94.90
43346;DHT22;28937;51.160;4.146;2022-12-07T04:51:31;10.40;95.00
43346;DHT22;28937;51.160;4.146;2022-12-07T04:53:56;10.40;95.10
43346;DHT22;28937;51.160;4.146;2022-12-07T04:56:23;10.50;95.00
43346;DHT22;28937;51.160;4.146;2022-12-07T04:58:49;10.40;95.00
43346;DHT22;28937;51.160;4.146;2022-12-07T05:01:16;10.50;95.10
43346;DHT22;28937;51.160;4.146;2022-12-07T05:03:42;10.50;95.10
43346;DHT22;28937;51.160;4.146;2022-12-07T05:06:08;10.40;95.20
43346;DHT22;28937;51.160;4.146;2022-12-07T05:08:34;10.50;95.10
43346;DHT22;28937;51.160;4.146;2022-12-07T05:11:00;10.70;93.90
43346;DHT22;28937;51.160;4.146;2022-12-07T05:13:26;10.90;93.30
43346;DHT22;28937;51.160;4.146;2022-12-07T05:15:52;11.00;93.10
43346;DHT22;28937;51.160;4.146;2022-12-07T05:18:17;11.00;93.10
43346;DHT22;28937;51.160;4.146;2022-12-07T05:20:44;11.00;93.20
43346;DHT22;28937;51.160;4.146;2022-12-07T05:23:10;10.90;93.30
43346;DHT22;28937;51.160;4.146;2022-12-07T05:25:36;11.00;93.40
43346;DHT22;28937;51.160;4.146;2022-12-07T05:28:02;11.00;93.50
43346;DHT22;28937;51.160;4.146;2022-12-07T05:30:28;10.90;93.60
43346;DHT22;28937;51.160;4.146;2022-12-07T05:32:53;10.80;93.70
43346;DHT22;28937;51.160;4.146;2022-12-07T05:35:19;10.80;93.80
43346;DHT22;28937;51.160;4.146;2022-12-07T05:37:45;10.80;93.80
43346;DHT22;28937;51.160;4.146;2022-12-07T05:40:12;10.90;93.90
43346;DHT22;28937;51.160;4.146;2022-12-07T05:42:38;10.90;93.90
43346;DHT22;28937;51.160;4.146;2022-12-07T05:45:05;10.90;93.90
43346;DHT22;28937;51.160;4.146;2022-12-07T05:47:31;11.00;93.80
43346;DHT22;28937;51.160;4.146;2022-12-07T05:49:56;10.90;93.90
43346;DHT22;28937;51.160;4.146;2022-12-07T05:52:22;10.90;93.80
43346;DHT22;28937;51.160;4.146;2022-12-07T05:54:47;10.80;94.10
43346;DHT22;28937;51.160;4.146;2022-12-07T05:57:13;10.90;94.00
43346;DHT22;28937;51.160;4.146;2022-12-07T05:59:38;10.80;94.20
43346;DHT22;28937;51.160;4.146;2022-12-07T06:02:07;10.90;94.20
43346;DHT22;28937;51.160;4.146;2022-12-07T06:04:35;10.80;94.10
43346;DHT22;28937;51.160;4.146;2022-12-07T06:07:01;11.00;94.00
43346;DHT22;28937;51.160;4.146;2022-12-07T06:09:28;11.00;94.00
43346;DHT22;28937;51.160;4.146;2022-12-07T06:11:54;10.90;94.30
43346;DHT22;28937;51.160;4.146;2022-12-07T06:14:39;10.80;94.30
43346;DHT22;28937;51.160;4.146;2022-12-07T06:17:05;10.70;94.60
43346;DHT22;28937;51.160;4.146;2022-12-07T06:19:31;10.70;94.60
43346;DHT22;28937;51.160;4.146;2022-12-07T06:21:56;11.00;94.20
43346;DHT22;28937;51.160;4.146;2022-12-07T06:24:22;10.90;94.10
43346;DHT22;28937;51.160;4.146;2022-12-07T06:26:48;10.90;94.30
43346;DHT22;28937;51.160;4.146;2022-12-07T06:29:14;10.80;94.20
43346;DHT22;28937;51.160;4.146;2022-12-07T06:31:40;10.80;94.20
43346;DHT22;28937;51.160;4.146;2022-12-07T06:34:17;10.80;94.20
43346;DHT22;28937;51.160;4.146;2022-12-07T06:36:43;10.90;94.30
43346;DHT22;28937;51.160;4.146;2022-12-07T06:39:10;10.90;94.10
43346;DHT22;28937;51.160;4.146;2022-12-07T06:41:37;10.80;94.40
43346;DHT22;28937;51.160;4.146;2022-12-07T06:44:06;10.70;94.50
43346;DHT22;28937;51.160;4.146;2022-12-07T06:46:32;10.60;94.60
43346;DHT22;28937;51.160;4.146;2022-12-07T06:48:58;10.70;94.50
43346;DHT22;28937;51.160;4.146;2022-12-07T06:51:24;10.60;94.50
43346;DHT22;28937;51.160;4.146;2022-12-07T06:53:49;10.60;94.60
43346;DHT22;28937;51.160;4.146;2022-12-07T06:56:15;10.50;94.50
43346;DHT22;28937;51.160;4.146;2022-12-07T06:58:41;10.60;94.60
43346;DHT22;28937;51.160;4.146;2022-12-07T07:01:11;10.60;94.50
43346;DHT22;28937;51.160;4.146;2022-12-07T07:03:37;10.60;94.50
43346;DHT22;28937;51.160;4.146;2022-12-07T07:06:03;10.60;94.50
43346;DHT22;28937;51.160;4.146;2022-12-07T07:08:29;10.60;94.40
43346;DHT22;28937;51.160;4.146;2022-12-07T07:10:54;10.60;94.30
43346;DHT22;28937;51.160;4.146;2022-12-07T07:13:20;10.50;94.40
43346;DHT22;28937;51.160;4.146;2022-12-07T07:15:45;10.70;94.40
43346;DHT22;28937;51.160;4.146;2022-12-07T07:18:11;10.90;93.80
43346;DHT22;28937;51.160;4.146;2022-12-07T07:20:38;10.80;93.80
43346;DHT22;28937;51.160;4.146;2022-12-07T07:23:04;11.10;93.70
43346;DHT22;28937;51.160;4.146;2022-12-07T07:25:29;11.30;93.10
43346;DHT22;28937;51.160;4.146;2022-12-07T07:27:55;11.40;93.10
43346;DHT22;28937;51.160;4.146;2022-12-07T07:30:21;11.20;92.70
43346;DHT22;28937;51.160;4.146;2022-12-07T07:32:46;11.20;92.90
43346;DHT22;28937;51.160;4.146;2022-12-07T07:35:12;10.90;93.00
43346;DHT22;28937;51.160;4.146;2022-12-07T07:37:39;11.20;93.20
43346;DHT22;28937;51.160;4.146;2022-12-07T07:40:05;11.30;93.10
43346;DHT22;28937;51.160;4.146;2022-12-07T07:42:31;11.40;93.00
43346;DHT22;28937;51.160;4.146;2022-12-07T07:44:57;11.40;93.10
43346;DHT22;28937;51.160;4.146;2022-12-07T07:47:22;11.40;93.30
43346;DHT22;28937;51.160;4.146;2022-12-07T07:49:47;11.40;93.40
43346;DHT22;28937;51.160;4.146;2022-12-07T07:52:13;11.40;93.50
43346;DHT22;28937;51.160;4.146;2022-12-07T07:54:39;11.10;93.40
43346;DHT22;28937;51.160;4.146;2022-12-07T07:57:04;11.00;93.80
43346;DHT22;28937;51.160;4.146;2022-12-07T07:59:30;10.90;94.00
43346;DHT22;28937;51.160;4.146;2022-12-07T08:01:55;10.90;93.90
43346;DHT22;28937;51.160;4.146;2022-12-07T08:04:21;10.90;93.90
43346;DHT22;28937;51.160;4.146;2022-12-07T08:06:46;10.90;93.90
43346;DHT22;28937;51.160;4.146;2022-12-07T08:09:12;11.20;93.70
43346;DHT22;28937;51.160;4.146;2022-12-07T08:11:37;11.10;93.80
43346;DHT22;28937;51.160;4.146;2022-12-07T08:14:03;11.10;93.90
43346;DHT22;28937;51.160;4.146;2022-12-07T08:16:29;11.10;94.00
43346;DHT22;28937;51.160;4.146;2022-12-07T08:18:54;11.10;94.10
43346;DHT22;28937;51.160;4.146;2022-12-07T08:21:22;11.10;94.20
43346;DHT22;28937;51.160;4.146;2022-12-07T08:23:48;11.00;94.30
43346;DHT22;28937;51.160;4.146;2022-12-07T08:26:15;11.20;94.30
43346;DHT22;28937;51.160;4.146;2022-12-07T08:28:41;11.10;94.40
43346;DHT22;28937;51.160;4.146;2022-12-07T08:31:11;11.30;94.20
43346;DHT22;28937;51.160;4.146;2022-12-07T08:33:37;11.60;93.80
43346;DHT22;28937;51.160;4.146;2022-12-07T08:36:05;11.80;93.70
43346;DHT22;28937;51.160;4.146;2022-12-07T08:38:33;11.80;93.80
43346;DHT22;28937;51.160;4.146;2022-12-07T08:40:59;11.70;94.00
43346;DHT22;28937;51.160;4.146;2022-12-07T08:43:25;11.50;94.20
43346;DHT22;28937;51.160;4.146;2022-12-07T08:48:34;11.80;94.20
43346;DHT22;28937;51.160;4.146;2022-12-07T08:51:02;11.80;94.10
43346;DHT22;28937;51.160;4.146;2022-12-07T08:53:28;11.70;94.10
43346;DHT22;28937;51.160;4.146;2022-12-07T08:55:56;11.80;93.90
43346;DHT22;28937;51.160;4.146;2022-12-07T08:58:22;11.80;93.80
43346;DHT22;28937;51.160;4.146;2022-12-07T09:00:47;11.80;93.90
43346;DHT22;28937;51.160;4.146;2022-12-07T09:03:13;11.40;94.40
43346;DHT22;28937;51.160;4.146;2022-12-07T09:05:38;11.40;94.90
43346;DHT22;28937;51.160;4.146;2022-12-07T09:08:04;11.30;94.90
43346;DHT22;28937;51.160;4.146;2022-12-07T09:10:30;11.30;94.90
43346;DHT22;28937;51.160;4.146;2022-12-07T09:12:56;11.40;94.80
43346;DHT22;28937;51.160;4.146;2022-12-07T09:15:26;11.40;94.70
43346;DHT22;28937;51.160;4.146;2022-12-07T09:17:52;11.40;94.70
43346;DHT22;28937;51.160;4.146;2022-12-07T09:20:18;11.50;94.60
43346;DHT22;28937;51.160;4.146;2022-12-07T09:22:44;11.40;94.50
43346;DHT22;28937;51.160;4.146;2022-12-07T09:25:09;11.60;94.40
43346;DHT22;28937;51.160;4.146;2022-12-07T09:27:35;11.50;94.50
43346;DHT22;28937;51.160;4.146;2022-12-07T09:30:01;11.60;94.70
43346;DHT22;28937;51.160;4.146;2022-12-07T09:32:26;11.60;94.80
43346;DHT22;28937;51.160;4.146;2022-12-07T09:34:52;11.40;94.90
43346;DHT22;28937;51.160;4.146;2022-12-07T09:37:17;11.50;94.90
43346;DHT22;28937;51.160;4.146;2022-12-07T09:39:43;11.60;94.60
43346;DHT22;28937;51.160;4.146;2022-12-07T09:42:11;11.70;94.60
43346;DHT22;28937;51.160;4.146;2022-12-07T09:44:44;12.20;94.30
43346;DHT22;28937;51.160;4.146;2022-12-07T09:47:10;12.40;94.00
43346;DHT22;28937;51.160;4.146;2022-12-07T09:49:35;12.40;94.00
43346;DHT22;28937;51.160;4.146;2022-12-07T09:54:35;12.30;94.10
43346;DHT22;28937;51.160;4.146;2022-12-07T09:57:02;12.30;94.20
43346;DHT22;28937;51.160;4.146;2022-12-07T09:59:27;12.30;94.10
43346;DHT22;28937;51.160;4.146;2022-12-07T10:01:53;12.40;94.40
43346;DHT22;28937;51.160;4.146;2022-12-07T10:04:24;12.30;94.60
43346;DHT22;28937;51.160;4.146;2022-12-07T10:06:51;12.10;94.20
43346;DHT22;28937;51.160;4.146;2022-12-07T10:09:18;11.90;94.20
43346;DHT22;28937;51.160;4.146;2022-12-07T10:14:30;11.90;94.40
43346;DHT22;28937;51.160;4.146;2022-12-07T10:16:56;12.20;94.40
43346;DHT22;28937;51.160;4.146;2022-12-07T10:22:01;12.00;94.60
43346;DHT22;28937;51.160;4.146;2022-12-07T10:24:26;11.90;94.70
43346;DHT22;28937;51.160;4.146;2022-12-07T10:26:53;12.20;94.70
43346;DHT22;28937;51.160;4.146;2022-12-07T10:29:30;12.10;94.70
43346;DHT22;28937;51.160;4.146;2022-12-07T10:32:02;12.10;94.70
43346;DHT22;28937;51.160;4.146;2022-12-07T10:34:33;12.10;94.60
43346;DHT22;28937;51.160;4.146;2022-12-07T10:39:49;12.20;94.60
43346;DHT22;28937;51.160;4.146;2022-12-07T10:44:47;12.20;95.00
43346;DHT22;28937;51.160;4.146;2022-12-07T10:50:26;12.40;94.80
43346;DHT22;28937;51.160;4.146;2022-12-07T11:04:06;12.70;94.80
43346;DHT22;28937;51.160;4.146;2022-12-07T11:17:45;12.60;95.50
43346;DHT22;28937;51.160;4.146;2022-12-07T11:35:11;13.10;98.40
43346;DHT22;28937;51.160;4.146;2022-12-07T11:37:41;13.30;98.20
43346;DHT22;28937;51.160;4.146;2022-12-07T11:40:20;13.30;98.40
43346;DHT22;28937;51.160;4.146;2022-12-07T11:45:46;13.50;97.50
43346;DHT22;28937;51.160;4.146;2022-12-07T11:48:31;13.50;97.80
43346;DHT22;28937;51.160;4.146;2022-12-07T11:51:00;13.40;98.00
43346;DHT22;28937;51.160;4.146;2022-12-07T11:53:51;13.50;96.90
43346;DHT22;28937;51.160;4.146;2022-12-07T11:56:17;13.50;95.90
43346;DHT22;28937;51.160;4.146;2022-12-07T11:58:49;13.60;96.60
43346;DHT22;28937;51.160;4.146;2022-12-07T12:06:35;13.60;96.50
43346;DHT22;28937;51.160;4.146;2022-12-07T12:09:05;13.60;96.20
43346;DHT22;28937;51.160;4.146;2022-12-07T12:12:06;13.60;96.10
43346;DHT22;28937;51.160;4.146;2022-12-07T12:17:39;13.60;95.20
43346;DHT22;28937;51.160;4.146;2022-12-07T12:20:17;13.60;95.80
43346;DHT22;28937;51.160;4.146;2022-12-07T12:22:48;13.70;95.80
43346;DHT22;28937;51.160;4.146;2022-12-07T12:25:28;13.70;95.80
43346;DHT22;28937;51.160;4.146;2022-12-07T12:27:58;13.60;95.70
43346;DHT22;28937;51.160;4.146;2022-12-07T12:30:30;13.70;95.60
43346;DHT22;28937;51.160;4.146;2022-12-07T12:33:14;13.70;95.50
43346;DHT22;28937;51.160;4.146;2022-12-07T12:35:41;13.70;95.70
43346;DHT22;28937;51.160;4.146;2022-12-07T12:40:54;13.80;95.60
43346;DHT22;28937;51.160;4.146;2022-12-07T12:43:40;14.00;95.10
43346;DHT22;28937;51.160;4.146;2022-12-07T12:49:35;13.90;95.00
43346;DHT22;28937;51.160;4.146;2022-12-07T12:57:30;14.10;94.10
43346;DHT22;28937;51.160;4.146;2022-12-07T13:00:00;14.10;94.40
43346;DHT22;28937;51.160;4.146;2022-12-07T13:26:22;13.50;92.80
43346;DHT22;28937;51.160;4.146;2022-12-07T13:28:52;13.20;92.70
43346;DHT22;28937;51.160;4.146;2022-12-07T13:34:46;13.90;93.00
43346;DHT22;28937;51.160;4.146;2022-12-07T13:37:26;13.90;92.70
43346;DHT22;28937;51.160;4.146;2022-12-07T13:39:55;13.90;92.50
43346;DHT22;28937;51.160;4.146;2022-12-07T13:42:32;14.00;92.40
43346;DHT22;28937;51.160;4.146;2022-12-07T13:45:00;14.00;92.20
43346;DHT22;28937;51.160;4.146;2022-12-07T13:49:55;14.00;92.00
43346;DHT22;28937;51.160;4.146;2022-12-07T13:52:29;13.90;92.10
43346;DHT22;28937;51.160;4.146;2022-12-07T13:57:30;13.80;92.10
43346;DHT22;28937;51.160;4.146;2022-12-07T13:59:57;13.80;92.30
43346;DHT22;28937;51.160;4.146;2022-12-07T14:02:28;13.80;92.50
43346;DHT22;28937;51.160;4.146;2022-12-07T14:05:23;13.80;92.40
43346;DHT22;28937;51.160;4.146;2022-12-07T14:07:54;13.80;92.60
43346;DHT22;28937;51.160;4.146;2022-12-07T14:13:00;13.90;92.80
43346;DHT22;28937;51.160;4.146;2022-12-07T14:15:31;14.00;92.70
43346;DHT22;28937;51.160;4.146;2022-12-07T14:17:58;14.00;92.60
43346;DHT22;28937;51.160;4.146;2022-12-07T14:20:37;14.00;92.70
43346;DHT22;28937;51.160;4.146;2022-12-07T14:23:03;13.90;92.60
43346;DHT22;28937;51.160;4.146;2022-12-07T14:25:54;13.90;92.50
43346;DHT22;28937;51.160;4.146;2022-12-07T14:28:31;13.90;92.70
43346;DHT22;28937;51.160;4.146;2022-12-07T14:30:57;13.90;92.60
43346;DHT22;28937;51.160;4.146;2022-12-07T14:33:24;13.90;92.80
43346;DHT22;28937;51.160;4.146;2022-12-07T14:35:50;13.90;92.80
43346;DHT22;28937;51.160;4.146;2022-12-07T14:38:20;13.90;92.90
43346;DHT22;28937;51.160;4.146;2022-12-07T14:40:45;13.90;92.80
43346;DHT22;28937;51.160;4.146;2022-12-07T14:43:13;13.90;92.80
43346;DHT22;28937;51.160;4.146;2022-12-07T14:45:39;13.90;92.90
43346;DHT22;28937;51.160;4.146;2022-12-07T14:48:06;14.00;93.20
43346;DHT22;28937;51.160;4.146;2022-12-07T14:50:36;13.70;92.40
43346;DHT22;28937;51.160;4.146;2022-12-07T14:53:11;13.40;92.00
43346;DHT22;28937;51.160;4.146;2022-12-07T14:55:37;13.20;92.40
43346;DHT22;28937;51.160;4.146;2022-12-07T14:58:03;13.20;92.30
43346;DHT22;28937;51.160;4.146;2022-12-07T15:00:29;13.50;92.50
43346;DHT22;28937;51.160;4.146;2022-12-07T15:02:55;13.70;92.30
43346;DHT22;28937;51.160;4.146;2022-12-07T15:05:21;13.60;91.80
43346;DHT22;28937;51.160;4.146;2022-12-07T15:07:47;13.30;91.80
43346;DHT22;28937;51.160;4.146;2022-12-07T15:10:20;13.60;91.80
43346;DHT22;28937;51.160;4.146;2022-12-07T15:12:46;13.80;91.70
43346;DHT22;28937;51.160;4.146;2022-12-07T15:15:12;13.70;91.50
43346;DHT22;28937;51.160;4.146;2022-12-07T15:17:38;13.70;91.50
43346;DHT22;28937;51.160;4.146;2022-12-07T15:20:04;13.80;91.80
43346;DHT22;28937;51.160;4.146;2022-12-07T15:22:30;13.70;91.90
43346;DHT22;28937;51.160;4.146;2022-12-07T15:24:57;13.70;91.90
43346;DHT22;28937;51.160;4.146;2022-12-07T15:27:22;13.70;91.80
43346;DHT22;28937;51.160;4.146;2022-12-07T15:29:48;13.70;91.50
43346;DHT22;28937;51.160;4.146;2022-12-07T15:32:13;13.70;91.40
43346;DHT22;28937;51.160;4.146;2022-12-07T15:34:39;13.50;91.40
43346;DHT22;28937;51.160;4.146;2022-12-07T15:37:05;13.30;91.90
43346;DHT22;28937;51.160;4.146;2022-12-07T15:39:30;13.20;92.00
43346;DHT22;28937;51.160;4.146;2022-12-07T15:41:56;12.90;92.30
43346;DHT22;28937;51.160;4.146;2022-12-07T15:44:21;13.00;92.10
43346;DHT22;28937;51.160;4.146;2022-12-07T15:47:06;12.90;92.00
43346;DHT22;28937;51.160;4.146;2022-12-07T15:49:32;12.90;92.20
43346;DHT22;28937;51.160;4.146;2022-12-07T15:51:57;12.90;92.40
43346;DHT22;28937;51.160;4.146;2022-12-07T15:54:28;12.80;92.50
43346;DHT22;28937;51.160;4.146;2022-12-07T15:56:54;12.90;92.50
43346;DHT22;28937;51.160;4.146;2022-12-07T15:59:21;12.90;92.40
43346;DHT22;28937;51.160;4.146;2022-12-07T16:01:46;12.80;92.40
43346;DHT22;28937;51.160;4.146;2022-12-07T16:04:12;12.70;92.40
43346;DHT22;28937;51.160;4.146;2022-12-07T16:06:38;12.70;92.70
43346;DHT22;28937;51.160;4.146;2022-12-07T16:09:04;12.60;92.50
43346;DHT22;28937;51.160;4.146;2022-12-07T16:11:31;12.50;92.00
43346;DHT22;28937;51.160;4.146;2022-12-07T16:13:56;12.40;92.60
43346;DHT22;28937;51.160;4.146;2022-12-07T16:16:22;12.40;92.70
43346;DHT22;28937;51.160;4.146;2022-12-07T16:18:48;12.40;92.70
43346;DHT22;28937;51.160;4.146;2022-12-07T16:21:16;12.50;92.40
43346;DHT22;28937;51.160;4.146;2022-12-07T16:23:42;12.40;92.40
43346;DHT22;28937;51.160;4.146;2022-12-07T16:26:11;12.60;92.20
43346;DHT22;28937;51.160;4.146;2022-12-07T16:28:37;12.30;92.20
43346;DHT22;28937;51.160;4.146;2022-12-07T16:31:05;12.20;92.30
43346;DHT22;28937;51.160;4.146;2022-12-07T16:33:36;12.10;92.60
43346;DHT22;28937;51.160;4.146;2022-12-07T16:36:03;12.20;92.50
43346;DHT22;28937;51.160;4.146;2022-12-07T16:38:29;12.00;92.70
43346;DHT22;28937;51.160;4.146;2022-12-07T16:40:54;11.80;92.80
43346;DHT22;28937;51.160;4.146;2022-12-07T16:43:20;12.00;93.30
43346;DHT22;28937;51.160;4.146;2022-12-07T16:45:46;12.40;92.80
43346;DHT22;28937;51.160;4.146;2022-12-07T16:48:15;12.60;92.70
43346;DHT22;28937;51.160;4.146;2022-12-07T16:50:42;12.30;92.30
43346;DHT22;28937;51.160;4.146;2022-12-07T16:53:11;12.00;92.60
43346;DHT22;28937;51.160;4.146;2022-12-07T16:55:38;11.70;92.70
43346;DHT22;28937;51.160;4.146;2022-12-07T16:58:05;11.70;93.30
43346;DHT22;28937;51.160;4.146;2022-12-07T17:00:31;12.00;93.10
43346;DHT22;28937;51.160;4.146;2022-12-07T17:02:57;12.00;92.60
43346;DHT22;28937;51.160;4.146;2022-12-07T17:05:23;12.30;92.50
43346;DHT22;28937;51.160;4.146;2022-12-07T17:07:50;11.90;92.40
43346;DHT22;28937;51.160;4.146;2022-12-07T17:10:16;12.00;92.80
43346;DHT22;28937;51.160;4.146;2022-12-07T17:12:42;12.00;92.50
43346;DHT22;28937;51.160;4.146;2022-12-07T17:15:08;11.80;92.80
43346;DHT22;28937;51.160;4.146;2022-12-07T17:17:45;11.50;93.10
43346;DHT22;28937;51.160;4.146;2022-12-07T17:20:11;11.60;93.30
43346;DHT22;28937;51.160;4.146;2022-12-07T17:22:38;11.90;93.40
43346;DHT22;28937;51.160;4.146;2022-12-07T17:25:04;12.30;92.70
43346;DHT22;28937;51.160;4.146;2022-12-07T17:27:31;12.60;92.20
43346;DHT22;28937;51.160;4.146;2022-12-07T17:29:56;12.70;92.00
43346;DHT22;28937;51.160;4.146;2022-12-07T17:32:22;12.20;91.70
43346;DHT22;28937;51.160;4.146;2022-12-07T17:34:48;11.90;92.40
43346;DHT22;28937;51.160;4.146;2022-12-07T17:37:13;11.60;92.70
43346;DHT22;28937;51.160;4.146;2022-12-07T17:39:39;11.60;93.00
43346;DHT22;28937;51.160;4.146;2022-12-07T17:42:05;11.40;93.40
43346;DHT22;28937;51.160;4.146;2022-12-07T17:44:49;11.20;93.50
43346;DHT22;28937;51.160;4.146;2022-12-07T17:47:15;11.20;93.70
43346;DHT22;28937;51.160;4.146;2022-12-07T17:49:42;11.10;93.60
43346;DHT22;28937;51.160;4.146;2022-12-07T17:52:11;11.20;93.50